createdAt,value
2022-11-30T06:34:23.940Z,44.93
2022-11-30T06:36:51.263Z,41.87
2022-11-30T06:39:31.426Z,46.67
2022-11-30T06:42:05.987Z,39.77
2022-11-30T06:44:33.282Z,40.07
2022-11-30T06:47:00.584Z,41.97
2022-11-30T06:49:28.292Z,45.30
2022-11-30T06:51:56.215Z,42.47
2022-11-30T06:54:24.704Z,43.87
2022-11-30T06:56:51.952Z,39.00
2022-11-30T06:59:19.308Z,40.60
2022-11-30T07:01:46.523Z,40.67
2022-11-30T07:04:13.795Z,38.10
2022-11-30T07:06:41.136Z,39.17
2022-11-30T07:09:10.373Z,40.83
2022-11-30T07:11:37.591Z,41.73
2022-11-30T07:14:04.904Z,41.07
2022-11-30T07:16:34.744Z,43.50
2022-11-30T07:19:54.849Z,45.77
2022-11-30T07:22:24.476Z,37.43
2022-11-30T07:25:10.374Z,40.27
2022-11-30T07:27:40.129Z,42.27
2022-11-30T07:30:46.734Z,48.33
2022-11-30T07:33:19.475Z,43.57
2022-11-30T07:35:57.173Z,41.40
2022-11-30T07:38:30.254Z,42.07
2022-11-30T07:41:12.167Z,43.17
2022-11-30T07:43:49.793Z,43.10
2022-11-30T07:46:34.598Z,42.10
2022-11-30T07:49:08.535Z,41.33
2022-11-30T07:52:14.234Z,41.80
2022-11-30T07:55:09.399Z,41.67
2022-11-30T07:58:17.488Z,43.30
2022-11-30T08:01:27.147Z,40.00
2022-11-30T08:03:58.067Z,41.90
2022-11-30T08:06:30.102Z,44.90
2022-11-30T08:09:03.149Z,44.80
2022-11-30T08:11:43.183Z,39.40
2022-11-30T08:14:14.996Z,42.83
2022-11-30T08:17:04.992Z,39.30
2022-11-30T08:19:33.532Z,41.20
2022-11-30T08:22:00.826Z,40.27
2022-11-30T08:24:28.939Z,41.17
2022-11-30T08:26:56.392Z,41.87
2022-11-30T08:29:27.750Z,46.60
2022-11-30T08:32:00.196Z,43.00
2022-11-30T08:34:37.958Z,42.03
2022-11-30T08:37:13.064Z,41.23
2022-11-30T08:39:40.661Z,40.17
2022-11-30T08:42:10.615Z,44.30
2022-11-30T08:44:37.948Z,39.73
2022-11-30T08:47:07.443Z,46.10
2022-11-30T08:49:36.025Z,40.20
2022-11-30T08:52:23.847Z,37.23
2022-11-30T08:54:51.569Z,40.00
2022-11-30T08:57:22.291Z,36.40
2022-11-30T08:59:49.991Z,35.47
2022-11-30T09:06:33.684Z,36.92
2022-11-30T09:09:04.192Z,41.00
2022-11-30T09:11:37.063Z,37.80
2022-11-30T09:14:08.090Z,39.77
2022-11-30T09:16:36.960Z,42.47
2022-11-30T09:19:04.680Z,36.97
2022-11-30T09:21:33.134Z,41.03
2022-11-30T09:24:00.915Z,40.13
2022-11-30T09:26:29.321Z,39.67
2022-11-30T09:29:16.802Z,39.87
2022-11-30T09:31:44.954Z,42.67
2022-11-30T09:34:13.068Z,41.30
2022-11-30T09:36:41.878Z,47.90
2022-11-30T09:39:16.847Z,43.47
2022-11-30T09:41:56.129Z,40.73
2022-11-30T09:44:27.221Z,41.13
2022-11-30T09:47:17.702Z,48.80
2022-11-30T09:49:45.809Z,48.27
2022-11-30T09:52:16.919Z,43.73
2022-11-30T09:54:45.285Z,43.30
2022-11-30T09:57:31.573Z,42.60
2022-11-30T10:00:00.147Z,38.50
2022-11-30T10:02:41.498Z,43.27
2022-11-30T10:05:17.358Z,39.37
2022-11-30T10:07:48.312Z,32.97
2022-11-30T10:10:37.968Z,33.47
2022-11-30T10:13:06.801Z,28.73
2022-11-30T10:15:54.566Z,31.33
2022-11-30T10:18:38.489Z,34.07
2022-11-30T10:21:08.966Z,34.93
2022-11-30T10:23:46.023Z,32.90
2022-11-30T10:26:15.943Z,29.73
2022-11-30T10:28:47.903Z,32.27
2022-11-30T10:31:16.022Z,31.43
2022-11-30T10:33:48.900Z,35.77
2022-11-30T10:36:37.185Z,32.73
2022-11-30T10:39:14.188Z,33.90
2022-11-30T10:41:47.614Z,33.03
2022-11-30T10:44:24.435Z,32.00
2022-11-30T10:47:03.611Z,34.80
2022-11-30T10:49:32.701Z,30.87
2022-11-30T10:52:08.084Z,33.00
2022-11-30T10:54:36.774Z,31.77
2022-11-30T10:57:05.622Z,33.60
2022-11-30T10:59:42.216Z,30.83
2022-11-30T11:02:28.657Z,33.07
2022-11-30T11:05:15.048Z,32.33
2022-11-30T11:07:48.146Z,31.20
2022-11-30T11:10:17.639Z,32.77
2022-11-30T11:12:52.587Z,33.87
2022-11-30T11:15:21.477Z,34.03
2022-11-30T11:17:49.124Z,33.33
2022-11-30T11:20:35.656Z,35.47
2022-11-30T11:23:07.977Z,36.30
2022-11-30T11:25:37.876Z,34.23
2022-11-30T11:28:13.667Z,31.10
2022-11-30T11:30:41.327Z,32.63
2022-11-30T11:33:12.062Z,32.43
2022-11-30T11:35:42.113Z,31.00
2022-11-30T11:38:19.383Z,33.50
2022-11-30T11:40:57.359Z,36.20
2022-11-30T11:43:25.753Z,36.37
2022-11-30T11:45:54.983Z,32.90
2022-11-30T11:48:34.813Z,40.00
2022-11-30T11:51:07.124Z,43.77
2022-11-30T11:53:43.297Z,33.07
2022-11-30T11:56:23.854Z,36.43
2022-11-30T11:58:58.504Z,32.90
2022-11-30T12:01:41.642Z,38.20
2022-11-30T12:04:32.214Z,33.27
2022-11-30T12:07:07.401Z,35.57
2022-11-30T12:09:45.779Z,34.80
2022-11-30T12:12:16.919Z,29.27
2022-11-30T12:14:58.163Z,31.23
2022-11-30T12:17:31.058Z,29.00
2022-11-30T12:20:04.342Z,30.33
2022-11-30T12:22:34.803Z,31.67
2022-11-30T12:25:13.694Z,30.33
2022-11-30T12:28:04.900Z,31.23
2022-11-30T12:30:42.918Z,31.83
2022-11-30T12:33:14.284Z,32.00
2022-11-30T12:36:05.574Z,28.37
2022-11-30T12:38:38.972Z,34.40
2022-11-30T12:41:29.133Z,32.13
2022-11-30T12:44:16.920Z,33.17
2022-11-30T12:46:47.529Z,31.40
2022-11-30T12:49:21.190Z,28.07
2022-11-30T12:51:58.012Z,31.93
2022-11-30T12:54:55.451Z,29.40
2022-11-30T12:57:35.127Z,30.13
2022-11-30T13:00:17.409Z,32.00
2022-11-30T13:02:53.807Z,31.40
2022-11-30T13:05:40.061Z,30.77
2022-11-30T13:08:25.673Z,29.20
2022-11-30T13:10:56.977Z,31.20
2022-11-30T13:13:29.807Z,29.57
2022-11-30T13:15:57.692Z,28.37
2022-11-30T13:18:25.909Z,31.23
2022-11-30T13:21:25.846Z,31.93
2022-11-30T13:24:09.635Z,31.23
2022-11-30T13:26:43.717Z,31.73
2022-11-30T13:29:29.577Z,32.23
2022-11-30T13:31:57.096Z,31.53
2022-11-30T13:34:28.496Z,30.87
2022-11-30T13:37:22.022Z,28.53
2022-11-30T13:39:56.161Z,30.10
2022-11-30T13:42:30.189Z,34.03
2022-11-30T13:44:58.235Z,28.93
2022-11-30T13:47:34.418Z,32.40
2022-11-30T13:50:05.494Z,33.33
2022-11-30T13:52:53.873Z,32.33
2022-11-30T13:55:46.044Z,32.40
2022-11-30T13:58:13.990Z,33.90
2022-11-30T14:00:47.995Z,34.87
2022-11-30T14:03:21.732Z,32.90
2022-11-30T14:05:55.700Z,35.67
2022-11-30T14:08:23.769Z,33.07
2022-11-30T14:10:56.495Z,34.77
2022-11-30T14:13:31.566Z,35.03
2022-11-30T14:16:00.696Z,34.43
2022-11-30T14:18:34.094Z,33.77
2022-11-30T14:21:07.125Z,37.00
2022-11-30T14:23:54.232Z,31.57
2022-11-30T14:26:33.520Z,35.37
2022-11-30T14:29:10.465Z,32.33
2022-11-30T14:31:43.269Z,33.27
2022-11-30T14:34:15.636Z,28.83
2022-11-30T14:36:45.892Z,35.97
2022-11-30T14:39:26.768Z,33.77
2022-11-30T14:41:54.910Z,32.97
2022-11-30T14:44:24.594Z,35.90
2022-11-30T14:46:51.947Z,33.67
2022-11-30T14:49:21.120Z,34.73
2022-11-30T14:51:52.717Z,36.03
2022-11-30T14:54:43.173Z,34.77
2022-11-30T14:57:18.915Z,34.87
2022-11-30T14:59:53.749Z,34.90
2022-11-30T15:02:23.356Z,33.63
2022-11-30T15:04:51.881Z,33.87
2022-11-30T15:07:28.982Z,30.93
2022-11-30T15:10:04.702Z,28.10
2022-11-30T15:12:32.435Z,30.07
2022-11-30T15:15:31.207Z,32.83
2022-11-30T15:18:00.014Z,26.77
2022-11-30T15:20:48.381Z,30.60
2022-11-30T15:23:16.406Z,29.27
2022-11-30T15:25:46.113Z,33.27
2022-11-30T15:28:15.115Z,30.73
2022-11-30T15:30:44.087Z,32.77
2022-11-30T15:33:21.659Z,30.40
2022-11-30T15:36:31.238Z,32.27
2022-11-30T15:38:55.283Z,35.23
2022-11-30T15:41:25.851Z,37.53
2022-11-30T15:43:54.264Z,33.33
2022-11-30T15:46:32.363Z,33.13
2022-11-30T15:49:06.997Z,31.77
2022-11-30T15:52:09.083Z,38.17
2022-11-30T15:54:43.325Z,32.63
2022-11-30T15:57:11.000Z,34.77
2022-11-30T15:59:38.231Z,37.53
2022-11-30T16:02:08.704Z,32.40
2022-11-30T16:04:54.751Z,34.07
2022-11-30T16:07:29.455Z,33.23
2022-11-30T16:10:07.650Z,31.30
2022-11-30T16:12:34.905Z,33.23
2022-11-30T16:15:02.368Z,33.87
2022-11-30T16:17:30.571Z,32.00
2022-11-30T16:19:58.067Z,34.47
2022-11-30T16:22:25.460Z,35.13
2022-11-30T16:24:52.810Z,36.10
2022-11-30T16:27:22.395Z,35.80
2022-11-30T16:29:52.591Z,33.17
2022-11-30T16:32:20.397Z,34.90
2022-11-30T16:34:48.612Z,32.43
2022-11-30T16:37:15.951Z,37.97
2022-11-30T16:39:43.450Z,39.90
2022-11-30T16:42:15.657Z,32.80
2022-11-30T16:44:43.092Z,33.33
2022-11-30T16:47:10.341Z,33.43
2022-11-30T16:49:37.679Z,32.17
2022-11-30T16:52:05.039Z,36.37
2022-11-30T16:54:32.506Z,36.60
2022-11-30T16:56:59.744Z,31.90
2022-11-30T16:59:27.022Z,32.23
2022-11-30T17:01:54.467Z,31.13
2022-11-30T17:04:23.984Z,30.97
2022-11-30T17:06:54.801Z,26.47
2022-11-30T17:09:27.332Z,29.57
2022-11-30T17:11:54.627Z,31.63
2022-11-30T17:14:22.454Z,29.90
2022-11-30T17:16:49.991Z,29.17
2022-11-30T17:19:17.399Z,28.63
2022-11-30T17:21:45.013Z,27.80
2022-11-30T17:24:13.276Z,28.83
2022-11-30T17:26:40.689Z,27.23
2022-11-30T17:29:08.001Z,25.63
2022-11-30T17:31:35.662Z,23.30
2022-11-30T17:34:03.094Z,24.10
2022-11-30T17:36:30.745Z,24.30
2022-11-30T17:38:58.152Z,23.50
2022-11-30T17:41:25.597Z,25.90
2022-11-30T17:43:52.993Z,22.30
2022-11-30T17:46:21.143Z,24.13
2022-11-30T17:48:49.738Z,26.27
2022-11-30T17:51:17.212Z,21.03
2022-11-30T17:53:44.724Z,22.47
2022-11-30T17:56:14.215Z,23.20
2022-11-30T17:58:44.230Z,19.80
2022-11-30T18:01:19.146Z,21.37
2022-11-30T18:03:46.923Z,23.63
2022-11-30T18:06:14.667Z,25.73
2022-11-30T18:08:42.022Z,22.50
2022-11-30T18:11:13.563Z,22.90
2022-11-30T18:13:41.225Z,24.07
2022-11-30T18:16:18.350Z,23.00
2022-11-30T18:18:48.210Z,23.90
2022-11-30T18:21:16.859Z,23.77
2022-11-30T18:23:45.354Z,21.77
2022-11-30T18:26:13.966Z,24.77
2022-11-30T18:28:41.327Z,22.53
2022-11-30T18:31:08.682Z,22.43
2022-11-30T18:33:36.568Z,24.13
2022-11-30T18:36:06.313Z,23.07
2022-11-30T18:39:05.630Z,24.57
2022-11-30T18:41:32.873Z,22.77
2022-11-30T18:44:00.240Z,24.43
2022-11-30T18:46:27.607Z,26.87
2022-11-30T18:48:55.359Z,24.10
2022-11-30T18:51:27.163Z,22.83
2022-11-30T18:53:58.532Z,25.23
2022-11-30T18:56:26.678Z,22.73
2022-11-30T18:58:58.227Z,23.90
2022-11-30T19:01:29.051Z,25.67
2022-11-30T19:04:04.473Z,24.70
2022-11-30T19:06:34.759Z,23.33
2022-11-30T19:09:03.968Z,25.30
2022-11-30T19:11:33.907Z,22.93
2022-11-30T19:14:01.781Z,21.50
2022-11-30T19:16:30.071Z,22.03
2022-11-30T19:19:00.048Z,23.93
2022-11-30T19:21:27.561Z,22.83
2022-11-30T19:23:54.999Z,22.57
2022-11-30T19:26:22.432Z,24.60
2022-11-30T19:28:49.863Z,21.73
2022-11-30T19:31:18.302Z,22.17
2022-11-30T19:33:46.745Z,22.83
2022-11-30T19:36:24.270Z,19.97
2022-11-30T19:38:51.695Z,23.67
2022-11-30T19:41:20.044Z,21.70
2022-11-30T19:43:53.915Z,22.57
2022-11-30T19:46:24.776Z,22.10
2022-11-30T19:48:56.674Z,20.77
2022-11-30T19:51:23.936Z,20.83
2022-11-30T19:53:55.559Z,20.40
2022-11-30T19:56:23.659Z,22.33
2022-11-30T19:58:51.160Z,20.47
2022-11-30T20:01:25.609Z,22.83
2022-11-30T20:03:54.035Z,22.90
2022-11-30T20:06:21.690Z,20.10
2022-11-30T20:08:49.155Z,20.60
2022-11-30T20:11:17.010Z,19.00
2022-11-30T20:13:46.125Z,21.17
2022-11-30T20:16:14.831Z,21.17
2022-11-30T20:18:46.206Z,20.67
2022-11-30T20:21:18.546Z,21.60
2022-11-30T20:23:47.295Z,20.90
2022-11-30T20:26:30.387Z,21.23
2022-11-30T20:28:59.664Z,18.23
2022-11-30T20:31:27.731Z,22.40
2022-11-30T20:33:54.995Z,20.57
2022-11-30T20:36:22.474Z,19.03
2022-11-30T20:39:21.775Z,22.63
2022-11-30T20:41:48.996Z,20.73
2022-11-30T20:44:16.390Z,21.33
2022-11-30T20:46:44.567Z,24.07
2022-11-30T20:49:21.383Z,23.33
2022-11-30T20:51:49.295Z,23.37
2022-11-30T20:54:17.530Z,24.73
2022-11-30T20:56:51.127Z,26.10
2022-11-30T20:59:26.355Z,26.57
2022-11-30T21:01:55.270Z,23.77
2022-11-30T21:04:23.775Z,27.20
2022-11-30T21:06:51.216Z,22.80
2022-11-30T21:10:10.154Z,23.67
2022-11-30T21:12:37.400Z,27.60
2022-11-30T21:15:05.752Z,24.37
2022-11-30T21:17:33.155Z,24.67
2022-11-30T21:20:02.814Z,23.27
2022-11-30T21:22:42.322Z,25.30
2022-11-30T21:25:09.843Z,22.03
2022-11-30T21:27:37.167Z,23.63
2022-11-30T21:30:05.368Z,21.80
2022-11-30T21:32:32.692Z,21.67
2022-11-30T21:35:00.387Z,22.77
2022-11-30T21:37:27.745Z,21.77
2022-11-30T21:39:55.710Z,22.93
2022-11-30T21:42:22.974Z,23.10
2022-11-30T21:44:50.505Z,22.10
2022-11-30T21:47:18.064Z,20.00
2022-11-30T21:49:45.448Z,21.47
2022-11-30T21:52:12.771Z,20.77
2022-11-30T21:54:40.013Z,21.23
2022-11-30T21:57:07.355Z,21.50
2022-11-30T21:59:35.065Z,22.10
2022-11-30T22:02:02.516Z,23.17
2022-11-30T22:04:29.852Z,22.23
2022-11-30T22:06:57.260Z,22.03
2022-11-30T22:09:24.484Z,21.37
2022-11-30T22:11:51.825Z,22.40
2022-11-30T22:14:19.094Z,20.73
2022-11-30T22:16:46.351Z,21.57
2022-11-30T22:19:13.693Z,22.90
2022-11-30T22:21:45.349Z,21.27
2022-11-30T22:24:15.970Z,22.67
2022-11-30T22:26:44.766Z,21.70
2022-11-30T22:29:15.506Z,21.23
2022-11-30T22:31:43.957Z,21.87
2022-11-30T22:34:11.706Z,20.53
2022-11-30T22:36:39.876Z,24.97
2022-11-30T22:39:09.358Z,21.60
2022-11-30T22:41:36.680Z,22.80
2022-11-30T22:44:03.957Z,23.53
2022-11-30T22:46:33.105Z,21.53
2022-11-30T22:49:01.120Z,21.70
2022-11-30T22:51:29.201Z,22.17
2022-11-30T22:53:56.775Z,23.43
2022-11-30T22:56:50.508Z,24.77
2022-11-30T22:59:17.777Z,25.13
2022-11-30T23:01:46.562Z,27.43
2022-11-30T23:04:14.948Z,23.83
2022-11-30T23:06:43.440Z,24.07
2022-11-30T23:09:12.776Z,24.77
2022-11-30T23:11:40.280Z,27.10
2022-11-30T23:14:08.998Z,26.97
2022-11-30T23:16:36.792Z,25.37
2022-11-30T23:19:04.714Z,22.83
2022-11-30T23:21:38.892Z,26.47
2022-11-30T23:24:08.987Z,27.40
2022-11-30T23:26:37.249Z,24.67
